Time;durP1;ratioP1;P1;durP2;ratioP2;P2;SDS_P1;SDS_P2;PMS_P1;PMS_P2;Temp;Humidity;BMP_temperature;BMP_pressure;BME280_temperature;BME280_humidity;BME280_pressure;Samples;Min_cycle;Max_cycle;Signal;HPM_P1;HPM_P2
2022/11/25 00:01:47;;;;;;;4.47;3.60;;;;;;;7.25;55.75;94703.94;5026197;28;20044;-76
2022/11/25 00:04:12;;;;;;;4.63;3.05;;;;;;;7.25;54.69;94717.63;4975667;28;20026;-77
2022/11/25 00:06:38;;;;;;;4.93;3.25;;;;;;;7.26;54.75;94706.25;5008948;28;20053;-76
2022/11/25 00:09:10;;;;;;;4.70;3.03;;;;;;;7.29;54.82;94721.81;4995668;28;20022;-76
2022/11/25 00:11:38;;;;;;;4.35;3.45;;;;;;;7.29;54.98;94710.88;5027570;28;20119;-76
2022/11/25 00:14:03;;;;;;;4.00;3.03;;;;;;;7.31;54.07;94726.88;5008427;28;20029;-76
2022/11/25 00:16:29;;;;;;;5.32;3.60;;;;;;;7.32;54.29;94731.13;4992809;28;20029;-75
2022/11/25 00:18:55;;;;;;;4.13;2.80;;;;;;;7.28;54.34;94728.47;5026201;28;20030;-75
2022/11/25 00:21:31;;;;;;;4.70;3.03;;;;;;;7.32;54.01;94723.72;5008818;28;20022;-76
2022/11/25 00:24:01;;;;;;;5.88;3.28;;;;;;;7.38;54.29;94729.47;5009435;28;20066;-76
2022/11/25 00:26:27;;;;;;;5.40;3.05;;;;;;;7.34;53.96;94735.00;4991966;28;20073;-76
2022/11/25 00:28:53;;;;;;;3.70;2.92;;;;;;;7.39;53.88;94736.47;5009097;28;20026;-76
2022/11/25 00:31:23;;;;;;;4.28;2.83;;;;;;;7.45;53.82;94726.56;4991340;28;20032;-75
2022/11/25 00:33:49;;;;;;;4.88;3.10;;;;;;;7.40;53.86;94738.78;5026277;28;20077;-75
2022/11/25 00:36:34;;;;;;;4.13;2.75;;;;;;;7.46;53.86;94730.88;4992004;28;20037;-76
2022/11/25 00:39:09;;;;;;;5.05;3.22;;;;;;;7.43;53.66;94720.75;5007907;28;20037;-77
2022/11/25 00:44:38;;;;;;;5.55;3.17;;;;;;;7.44;54.00;94728.53;5029088;28;20040;-76
2022/11/25 00:47:08;;;;;;;5.03;3.55;;;;;;;7.41;54.39;94736.84;5001403;28;20029;-76
2022/11/25 00:49:34;;;;;;;3.90;3.22;;;;;;;7.38;54.31;94734.94;5029669;28;20068;-76
2022/11/25 00:51:59;;;;;;;5.75;3.53;;;;;;;7.37;54.47;94747.81;4995131;28;20469;-76
2022/11/25 00:54:25;;;;;;;5.55;3.53;;;;;;;7.32;54.48;94734.66;5012094;28;20661;-77
2022/11/25 00:56:51;;;;;;;3.75;3.10;;;;;;;7.30;54.46;94734.31;5028867;28;20036;-76
2022/11/25 00:59:16;;;;;;;5.90;3.70;;;;;;;7.33;54.80;94738.16;4979826;28;20032;-76
2022/11/25 01:01:41;;;;;;;4.68;3.40;;;;;;;7.26;54.77;94733.59;5028655;28;20056;-76
2022/11/25 01:04:07;;;;;;;3.97;3.42;;;;;;;7.29;54.72;94738.22;4995414;28;20025;-76
2022/11/25 01:06:33;;;;;;;5.38;3.42;;;;;;;7.35;54.53;94735.78;5029410;28;20034;-76
2022/11/25 01:08:59;;;;;;;4.13;3.30;;;;;;;7.37;54.43;94733.38;4994992;28;20025;-76
2022/11/25 01:11:24;;;;;;;4.60;2.97;;;;;;;7.34;54.49;94742.41;4978961;28;20036;-76
2022/11/25 01:13:50;;;;;;;6.03;3.58;;;;;;;7.36;54.33;94737.31;5011815;28;20029;-76
2022/11/25 01:16:17;;;;;;;5.05;3.10;;;;;;;7.36;54.70;94746.28;4998774;28;20026;-76
2022/11/25 01:18:43;;;;;;;5.13;3.10;;;;;;;7.29;54.41;94742.94;4995050;28;20029;-76
2022/11/25 01:21:13;;;;;;;6.63;3.58;;;;;;;7.32;54.39;94742.06;4996100;28;20057;-76
2022/11/25 01:23:39;;;;;;;5.50;3.25;;;;;;;7.33;54.38;94744.38;4978691;28;20021;-77
2022/11/25 01:26:05;;;;;;;5.90;3.45;;;;;;;7.42;54.15;94747.34;4995208;28;20037;-76
2022/11/25 01:28:31;;;;;;;4.32;3.00;;;;;;;7.39;54.20;94736.47;5011480;28;20022;-76
2022/11/25 01:31:05;;;;;;;5.57;3.42;;;;;;;7.44;54.06;94750.41;4994692;28;20675;-75
2022/11/25 01:33:31;;;;;;;3.75;3.08;;;;;;;7.43;53.98;94743.41;5011788;28;20017;-75
2022/11/25 01:36:02;;;;;;;4.43;2.78;;;;;;;7.45;53.79;94732.84;5010601;28;20126;-76
2022/11/25 01:38:27;;;;;;;3.67;2.88;;;;;;;7.46;53.78;94725.41;4995689;28;20102;-76
2022/11/25 01:40:53;;;;;;;5.25;3.45;;;;;;;7.47;53.74;94735.16;4994236;28;20113;-76
2022/11/25 01:43:18;;;;;;;4.60;3.15;;;;;;;7.52;53.63;94731.16;5011014;28;20041;-76
2022/11/25 01:45:43;;;;;;;4.32;3.05;;;;;;;7.56;53.07;94726.34;5028556;28;20029;-76
2022/11/25 01:48:31;;;;;;;3.78;2.60;;;;;;;7.49;52.89;94718.31;5010591;28;20046;-76
2022/11/25 01:50:57;;;;;;;5.78;2.92;;;;;;;7.48;53.08;94717.53;4995670;28;20064;-75
2022/11/25 01:53:22;;;;;;;5.35;3.05;;;;;;;7.43;52.82;94713.31;4993439;28;20029;-76
2022/11/25 01:55:54;;;;;;;4.38;2.85;;;;;;;7.50;52.78;94709.66;4994862;28;20040;-77
2022/11/25 01:58:30;;;;;;;4.13;2.65;;;;;;;7.52;52.73;94710.03;5010779;28;20515;-76
2022/11/25 02:00:56;;;;;;;4.57;2.83;;;;;;;7.55;52.59;94711.91;4978319;28;20415;-76
2022/11/25 02:03:36;;;;;;;3.42;2.22;;;;;;;7.55;52.50;94711.91;4994270;28;20436;-76
2022/11/25 02:06:15;;;;;;;2.53;2.22;;;;;;;7.55;52.25;94711.91;4993723;28;20030;-76
2022/11/25 02:08:41;;;;;;;4.70;2.42;;;;;;;7.55;52.18;94720.13;4995061;28;20071;-75
2022/11/25 02:11:07;;;;;;;6.00;2.70;;;;;;;7.55;52.25;94722.84;4993579;28;20056;-76
2022/11/25 02:13:32;;;;;;;2.80;2.10;;;;;;;7.62;51.93;94719.97;4994312;28;20029;-76
2022/11/25 02:15:58;;;;;;;2.67;2.15;;;;;;;7.64;52.02;94728.53;4993748;28;20034;-76
2022/11/25 02:18:24;;;;;;;3.72;2.40;;;;;;;7.61;51.93;94728.59;5010041;28;20052;-76
2022/11/25 02:20:49;;;;;;;4.38;2.53;;;;;;;7.61;52.17;94723.13;5013541;28;20029;-76
2022/11/25 02:23:24;;;;;;;3.20;2.40;;;;;;;7.56;52.11;94720.88;5010040;28;20036;-76
2022/11/25 02:25:50;;;;;;;4.57;2.60;;;;;;;7.56;51.77;94724.38;4996068;28;20021;-76
2022/11/25 02:28:19;;;;;;;4.90;2.55;;;;;;;7.51;51.82;94713.94;4993373;28;20071;-76
2022/11/25 02:30:48;;;;;;;3.10;2.30;;;;;;;7.52;51.79;94717.47;4994832;28;20029;-76
2022/11/25 02:33:14;;;;;;;4.53;2.53;;;;;;;7.41;52.07;94731.38;5010408;28;20491;-77
2022/11/25 02:35:53;;;;;;;3.55;2.25;;;;;;;7.44;51.89;94731.28;5027768;28;20028;-76
2022/11/25 02:38:43;;;;;;;4.75;2.50;;;;;;;7.45;51.96;94732.03;5011833;28;20043;-76
2022/11/25 02:41:17;;;;;;;2.80;2.13;;;;;;;7.48;51.62;94727.72;5009270;28;20018;-76
2022/11/25 02:43:42;;;;;;;4.00;2.42;;;;;;;7.40;51.80;94714.19;5010808;28;20026;-76
2022/11/25 02:46:16;;;;;;;4.05;2.38;;;;;;;7.44;51.76;94727.78;5027420;28;20053;-75
2022/11/25 02:48:41;;;;;;;4.93;2.72;;;;;;;7.45;51.82;94726.56;4993213;28;20056;-75
2022/11/25 02:51:08;;;;;;;4.60;2.65;;;;;;;7.39;51.81;94729.03;4993662;28;20112;-76
2022/11/25 02:53:34;;;;;;;3.63;2.53;;;;;;;7.37;52.00;94723.22;4993301;28;20038;-76
2022/11/25 02:55:59;;;;;;;3.22;2.65;;;;;;;7.37;52.14;94728.69;4993979;28;20128;-76
2022/11/25 02:58:25;;;;;;;4.40;2.88;;;;;;;7.36;52.18;94729.88;4992715;28;20474;-76
2022/11/25 03:00:50;;;;;;;3.88;2.45;;;;;;;7.33;52.40;94725.25;4993585;28;20025;-76
2022/11/25 03:03:16;;;;;;;3.67;2.58;;;;;;;7.34;52.28;94726.00;4992792;28;20021;-76
2022/11/25 03:05:41;;;;;;;3.83;2.20;;;;;;;7.38;52.14;94734.94;4976516;28;20036;-76
2022/11/25 03:08:07;;;;;;;4.38;2.45;;;;;;;7.37;52.63;94738.84;5009358;28;20537;-75
2022/11/25 03:10:32;;;;;;;3.65;2.60;;;;;;;7.38;52.55;94741.16;4992574;28;20037;-76
2022/11/25 03:12:58;;;;;;;4.78;2.70;;;;;;;7.33;52.76;94744.38;5009480;28;20464;-76
2022/11/25 03:15:23;;;;;;;4.05;2.42;;;;;;;7.34;52.92;94748.69;4992253;28;20381;-76
2022/11/25 03:17:49;;;;;;;3.75;3.15;;;;;;;7.36;52.65;94753.72;4977091;28;20049;-76
2022/11/25 03:20:15;;;;;;;4.30;2.90;;;;;;;7.34;53.09;94756.09;4991951;28;20033;-76
2022/11/25 03:22:43;;;;;;;3.55;3.00;;;;;;;7.30;53.47;94747.97;5009650;28;20025;-77
2022/11/25 03:25:10;;;;;;;4.25;3.35;;;;;;;7.31;53.28;94757.72;5009378;28;20510;-77
2022/11/25 03:27:36;;;;;;;3.90;2.80;;;;;;;7.30;53.21;94756.19;4996195;28;20033;-76
2022/11/25 03:30:01;;;;;;;3.60;3.00;;;;;;;7.32;53.57;94763.97;4993186;28;20480;-76
2022/11/25 03:32:27;;;;;;;3.83;3.05;;;;;;;7.30;53.95;94767.13;4976213;28;20033;-76
2022/11/25 03:34:52;;;;;;;3.92;2.90;;;;;;;7.34;53.74;94769.75;5009254;28;20029;-76
2022/11/25 03:37:18;;;;;;;6.53;3.10;;;;;;;7.33;54.14;94768.22;5026528;28;20441;-76
2022/11/25 03:39:44;;;;;;;5.43;3.40;;;;;;;7.33;54.43;94769.00;5010047;28;20569;-76
2022/11/25 03:42:09;;;;;;;5.55;3.80;;;;;;;7.27;54.56;94776.16;5008572;28;20403;-76
2022/11/25 03:44:35;;;;;;;4.65;3.35;;;;;;;7.30;54.57;94769.09;5027229;28;20025;-76
2022/11/25 03:47:00;;;;;;;8.75;4.90;;;;;;;7.25;54.81;94775.03;5026727;28;20036;-76
2022/11/25 03:49:26;;;;;;;8.77;4.55;;;;;;;7.18;55.24;94765.78;4992109;28;20052;-76
2022/11/25 03:51:51;;;;;;;4.45;2.97;;;;;;;7.14;55.38;94780.69;5009096;28;20021;-76
2022/11/25 03:54:16;;;;;;;3.88;2.97;;;;;;;7.09;55.71;94779.19;5025837;28;20029;-76
2022/11/25 03:56:42;;;;;;;3.63;3.00;;;;;;;7.10;55.60;94782.72;4992939;28;20045;-76
2022/11/25 03:59:07;;;;;;;5.30;2.97;;;;;;;7.07;55.91;94781.59;5007915;28;20021;-76
2022/11/25 04:01:33;;;;;;;4.55;2.70;;;;;;;7.11;55.82;94795.97;5009260;28;20043;-76
2022/11/25 04:03:58;;;;;;;7.82;2.97;;;;;;;7.11;55.75;94797.91;5008288;28;20033;-76
2022/11/25 04:06:24;;;;;;;3.42;2.50;;;;;;;7.07;56.19;94797.22;4992570;28;20036;-76
2022/11/25 04:08:49;;;;;;;5.30;3.13;;;;;;;7.02;56.17;94794.97;4992347;28;20068;-76
2022/11/25 04:11:15;;;;;;;4.88;3.00;;;;;;;6.96;56.36;94799.38;5008122;28;20487;-76
2022/11/25 04:13:40;;;;;;;3.60;2.50;;;;;;;6.96;56.43;94802.09;5008677;28;20389;-77
2022/11/25 04:16:12;;;;;;;4.53;2.60;;;;;;;6.88;56.76;94809.63;5026177;28;20034;-76
2022/11/25 04:18:38;;;;;;;4.65;2.72;;;;;;;6.91;56.42;94804.13;4996830;28;20072;-76
2022/11/25 04:21:03;;;;;;;3.03;2.65;;;;;;;6.89;56.48;94805.72;5011686;28;20033;-76
2022/11/25 04:23:29;;;;;;;4.45;2.80;;;;;;;6.83;56.46;94799.19;4996601;28;20478;-76
2022/11/25 04:25:54;;;;;;;3.20;1.85;;;;;;;6.77;56.97;94807.09;5029853;28;20018;-76
2022/11/25 04:28:19;;;;;;;3.00;2.58;;;;;;;6.77;56.96;94809.06;5029880;28;20021;-76
2022/11/25 04:30:45;;;;;;;3.88;2.58;;;;;;;6.74;57.17;94809.88;5012336;28;20498;-75
2022/11/25 04:33:10;;;;;;;3.40;2.60;;;;;;;6.78;56.88;94813.34;5033624;28;20451;-76
2022/11/25 04:35:36;;;;;;;3.97;2.38;;;;;;;6.70;57.20;94807.19;5013019;28;20038;-76
2022/11/25 04:38:01;;;;;;;2.95;2.00;;;;;;;6.72;57.08;94820.47;5011996;28;20472;-76
2022/11/25 04:40:27;;;;;;;2.92;2.20;;;;;;;6.70;57.01;94820.84;5013079;28;20021;-76
2022/11/25 04:42:52;;;;;;;3.15;2.22;;;;;;;6.70;57.29;94828.28;4995784;28;20381;-76
2022/11/25 04:45:17;;;;;;;3.38;2.45;;;;;;;6.60;57.16;94830.00;4996242;28;20400;-75
2022/11/25 04:47:43;;;;;;;3.58;2.65;;;;;;;6.58;57.06;94818.69;4995637;28;20513;-76
2022/11/25 04:50:15;;;;;;;3.30;2.40;;;;;;;6.65;57.08;94838.50;5011779;28;20029;-76
2022/11/25 04:52:41;;;;;;;2.60;2.40;;;;;;;6.63;57.17;94846.31;4996479;28;20030;-76
2022/11/25 04:55:06;;;;;;;2.90;2.33;;;;;;;6.67;57.07;94840.81;5027528;28;20044;-76
2022/11/25 04:57:32;;;;;;;2.95;2.45;;;;;;;6.63;56.90;94838.13;4995698;28;20558;-77
2022/11/25 04:59:57;;;;;;;4.00;2.83;;;;;;;6.71;56.70;94847.00;5010923;28;20030;-76
2022/11/25 05:02:26;;;;;;;3.17;2.25;;;;;;;6.70;56.78;94850.13;5029896;28;20025;-75
2022/11/25 05:04:53;;;;;;;2.83;2.40;;;;;;;6.69;56.46;94862.25;5011349;28;20115;-75
2022/11/25 05:07:19;;;;;;;4.07;2.83;;;;;;;6.65;56.43;94865.81;5011377;28;20099;-75
2022/11/25 05:09:45;;;;;;;3.58;2.63;;;;;;;6.63;56.38;94865.44;4995576;28;20033;-75
2022/11/25 05:12:12;;;;;;;2.28;2.05;;;;;;;6.71;56.23;94868.84;4994367;28;20025;-74
2022/11/25 05:14:38;;;;;;;4.07;2.45;;;;;;;6.69;55.87;94876.69;5012102;28;20030;-76
2022/11/25 05:17:03;;;;;;;2.78;2.13;;;;;;;6.76;55.84;94884.75;4994302;28;20045;-75
2022/11/25 05:19:29;;;;;;;3.83;2.17;;;;;;;6.76;55.70;94894.91;5011911;28;20100;-74
2022/11/25 05:21:54;;;;;;;2.88;2.40;;;;;;;6.75;55.54;94896.13;5010501;28;20171;-75
2022/11/25 05:24:20;;;;;;;4.50;2.50;;;;;;;6.78;55.33;94895.28;5011280;28;20045;-76
2022/11/25 05:26:45;;;;;;;3.13;1.80;;;;;;;6.74;55.25;94898.06;5011133;28;20031;-76
2022/11/25 05:29:10;;;;;;;3.67;1.90;;;;;;;6.79;55.13;94919.47;4993641;28;20026;-77
2022/11/25 05:31:36;;;;;;;4.03;2.03;;;;;;;6.81;54.83;94910.84;5011285;28;20029;-77
2022/11/25 05:34:01;;;;;;;3.55;2.42;;;;;;;6.85;54.76;94922.50;5010396;28;20025;-77
2022/11/25 05:36:27;;;;;;;3.97;2.40;;;;;;;6.84;54.82;94924.47;4995441;28;20033;-76
2022/11/25 05:38:54;;;;;;;4.70;2.35;;;;;;;6.83;54.53;94917.47;4996577;28;20021;-76
2022/11/25 05:41:20;;;;;;;2.72;2.20;;;;;;;6.86;54.72;94937.72;5011611;28;20495;-76
2022/11/25 05:43:46;;;;;;;2.83;2.30;;;;;;;6.88;54.61;94940.81;5028274;28;20033;-76
2022/11/25 05:46:11;;;;;;;2.83;2.33;;;;;;;6.90;54.48;94946.66;5011028;28;20033;-76
2022/11/25 05:48:37;;;;;;;5.90;2.75;;;;;;;6.87;54.67;94952.91;4994640;28;20051;-76
2022/11/25 05:51:03;;;;;;;3.42;2.58;;;;;;;6.93;54.31;94954.00;5010392;28;20034;-76
2022/11/25 05:53:29;;;;;;;11.75;3.58;;;;;;;6.94;54.10;94958.31;4994681;28;20504;-76
2022/11/25 05:55:55;;;;;;;7.78;3.60;;;;;;;6.97;53.70;94960.19;4993784;28;20030;-75
2022/11/25 05:58:21;;;;;;;4.57;2.70;;;;;;;6.99;53.62;94962.50;4995033;28;20563;-75
2022/11/25 06:00:47;;;;;;;2.85;2.10;;;;;;;7.03;53.58;94972.22;5009706;28;20093;-75
2022/11/25 06:03:12;;;;;;;5.68;2.90;;;;;;;7.04;53.16;94965.56;4978079;28;20037;-74
2022/11/25 06:05:40;;;;;;;5.22;2.60;;;;;;;7.08;53.17;94970.97;5010287;28;20091;-77
2022/11/25 06:08:06;;;;;;;5.03;2.78;;;;;;;7.06;53.34;94965.16;4994305;28;20025;-76
2022/11/25 06:10:31;;;;;;;4.88;2.33;;;;;;;7.11;52.77;94979.13;5028222;28;20048;-76
2022/11/25 06:12:56;;;;;;;3.85;2.33;;;;;;;7.12;52.83;94979.91;5009713;28;20037;-75
2022/11/25 06:15:22;;;;;;;3.72;2.53;;;;;;;7.06;53.32;94973.38;5010571;28;20087;-76
2022/11/25 06:17:47;;;;;;;3.50;2.60;;;;;;;7.07;53.24;94983.88;5009311;28;20040;-75
2022/11/25 06:20:13;;;;;;;4.75;3.20;;;;;;;7.13;53.12;94984.19;5011053;28;20025;-76
2022/11/25 06:22:38;;;;;;;4.70;3.40;;;;;;;7.19;53.27;94993.47;4976894;28;20025;-76
2022/11/25 06:25:04;;;;;;;4.63;2.92;;;;;;;7.27;53.03;94996.84;5009995;28;20029;-76
2022/11/25 06:27:29;;;;;;;6.55;3.15;;;;;;;7.33;52.60;94992.47;4993776;28;20427;-76
2022/11/25 06:29:55;;;;;;;4.40;2.70;;;;;;;7.35;52.46;95001.06;5027304;28;20103;-75
2022/11/25 06:32:20;;;;;;;3.80;2.92;;;;;;;7.42;52.16;95011.88;4993650;28;20036;-76
2022/11/25 06:34:46;;;;;;;3.80;2.50;;;;;;;7.46;52.15;95015.34;5026885;28;20025;-77
2022/11/25 06:37:11;;;;;;;3.35;2.33;;;;;;;7.44;52.24;95009.50;5027970;28;20476;-76
2022/11/25 06:39:37;;;;;;;3.78;2.83;;;;;;;7.47;52.05;95021.56;5025990;28;20570;-77
2022/11/25 06:42:02;;;;;;;12.65;6.20;;;;;;;7.52;52.00;95016.41;4993531;28;20022;-77
2022/11/25 06:44:27;;;;;;;5.25;3.17;;;;;;;7.60;51.90;95023.31;5012706;28;20022;-75
2022/11/25 06:46:53;;;;;;;4.88;3.30;;;;;;;7.71;51.79;95021.16;5027773;28;20025;-77
2022/11/25 06:49:18;;;;;;;5.65;4.60;;;;;;;7.75;51.68;95020.34;5027694;28;20061;-74
2022/11/25 06:51:44;;;;;;;6.95;4.20;;;;;;;7.81;51.52;95024.16;4976311;28;20030;-75
2022/11/25 06:54:09;;;;;;;3.78;2.97;;;;;;;7.77;51.81;95024.22;5009781;28;20474;-75
2022/11/25 06:56:35;;;;;;;4.03;3.00;;;;;;;7.79;51.53;95021.81;4992695;28;20745;-75
2022/11/25 06:59:00;;;;;;;6.20;3.08;;;;;;;7.80;51.65;95025.31;4992536;28;20030;-75
2022/11/25 07:01:27;;;;;;;4.40;3.33;;;;;;;7.89;51.33;95018.13;5007485;28;20029;-75
2022/11/25 07:03:54;;;;;;;4.93;4.43;;;;;;;7.91;51.18;95026.72;4993156;28;20041;-74
2022/11/25 07:06:19;;;;;;;9.30;4.68;;;;;;;7.98;51.22;95026.59;4992960;28;20471;-75
2022/11/25 07:08:45;;;;;;;6.28;4.05;;;;;;;7.99;50.69;95024.63;5009082;28;20032;-76
2022/11/25 07:11:31;;;;;;;5.95;3.60;;;;;;;7.99;50.85;95024.63;5009172;28;20021;-75
2022/11/25 07:13:58;;;;;;;7.00;3.30;;;;;;;8.08;51.36;95024.06;4992645;28;20021;-75
2022/11/25 07:16:24;;;;;;;4.72;3.50;;;;;;;8.07;50.52;95028.78;5009878;28;20053;-75
2022/11/25 07:18:49;;;;;;;4.45;3.30;;;;;;;8.05;50.59;95033.91;4992448;28;20064;-75
2022/11/25 07:21:16;;;;;;;4.32;3.25;;;;;;;8.03;50.42;95032.75;4992847;28;20026;-75
2022/11/25 07:23:43;;;;;;;4.57;3.08;;;;;;;8.08;51.18;95038.53;5009104;28;20105;-77
2022/11/25 07:26:13;;;;;;;6.45;4.32;;;;;;;8.12;50.42;95036.50;4992369;28;20530;-76
2022/11/25 07:28:38;;;;;;;6.82;4.22;;;;;;;8.16;50.33;95036.47;4993155;28;20507;-76
2022/11/25 07:31:12;;;;;;;4.75;2.95;;;;;;;8.26;49.91;95035.50;4992199;28;20030;-76
2022/11/25 07:33:37;;;;;;;4.63;3.78;;;;;;;8.25;50.11;95033.91;4993819;28;20112;-76
2022/11/25 07:36:04;;;;;;;4.65;3.20;;;;;;;8.23;49.91;95037.09;5025937;28;20041;-77
2022/11/25 07:38:30;;;;;;;4.45;3.22;;;;;;;8.19;50.08;95047.31;5009285;28;20027;-76
2022/11/25 07:40:55;;;;;;;4.93;3.42;;;;;;;9.10;48.20;95036.19;4992512;28;20029;-76
2022/11/25 07:43:21;;;;;;;6.78;3.80;;;;;;;10.05;45.88;95051.66;5008637;28;20084;-76
2022/11/25 07:45:46;;;;;;;4.10;3.22;;;;;;;10.75;44.39;95042.00;4992753;28;20029;-76
2022/11/25 07:48:12;;;;;;;4.93;3.30;;;;;;;11.38;42.32;95055.88;5009028;28;20053;-77
2022/11/25 07:50:37;;;;;;;5.75;4.20;;;;;;;12.11;41.23;95057.97;5030277;28;20025;-75
2022/11/25 07:53:03;;;;;;;4.75;3.33;;;;;;;12.66;39.61;95056.47;5026184;28;20022;-76
2022/11/25 07:55:28;;;;;;;5.15;3.58;;;;;;;13.22;38.60;95054.91;5009064;28;20035;-75
2022/11/25 07:57:53;;;;;;;5.15;3.38;;;;;;;13.82;37.79;95054.59;5008016;28;20025;-77
2022/11/25 08:00:20;;;;;;;6.63;4.30;;;;;;;14.31;36.08;95064.88;5026341;28;20034;-75
2022/11/25 08:02:45;;;;;;;5.38;3.92;;;;;;;14.78;35.07;95066.47;5026457;28;20492;-75
2022/11/25 08:05:11;;;;;;;5.50;4.03;;;;;;;15.20;34.38;95068.63;5007986;28;20079;-76
2022/11/25 08:07:36;;;;;;;5.07;3.75;;;;;;;15.68;33.75;95066.06;5008813;28;20029;-76
2022/11/25 08:10:02;;;;;;;5.65;3.40;;;;;;;16.06;33.00;95065.47;5008325;28;20056;-76
2022/11/25 08:12:27;;;;;;;5.38;3.45;;;;;;;16.45;32.36;95071.84;5009125;28;20026;-76
2022/11/25 08:14:53;;;;;;;4.85;3.53;;;;;;;16.79;31.71;95078.88;5025475;28;20030;-76
2022/11/25 08:17:18;;;;;;;5.70;3.25;;;;;;;17.13;30.41;95080.31;5026623;28;20034;-76
2022/11/25 08:19:43;;;;;;;5.70;3.35;;;;;;;17.57;30.49;95087.94;5008253;28;20389;-76
2022/11/25 08:22:09;;;;;;;4.78;2.60;;;;;;;17.64;29.48;95084.75;5008398;28;20535;-75
2022/11/25 08:24:34;;;;;;;6.68;4.00;;;;;;;18.01;29.30;95090.72;4992048;28;20492;-75
2022/11/25 08:27:00;;;;;;;5.68;3.63;;;;;;;18.40;28.44;95093.28;4991621;28;20021;-77
2022/11/25 08:29:26;;;;;;;4.57;2.95;;;;;;;18.68;28.09;95107.63;5026300;28;20049;-74
2022/11/25 08:31:51;;;;;;;3.13;2.83;;;;;;;18.74;28.03;95091.00;5007621;28;20464;-76
2022/11/25 08:34:21;;;;;;;4.13;3.17;;;;;;;19.08;27.48;95094.97;4992438;28;20029;-75
2022/11/25 08:36:47;;;;;;;5.07;2.88;;;;;;;19.52;26.75;95093.91;5025680;28;20033;-75
2022/11/25 08:39:12;;;;;;;3.60;3.15;;;;;;;19.80;26.22;95083.81;5026231;28;20033;-75
2022/11/25 08:41:38;;;;;;;4.80;3.28;;;;;;;19.98;25.69;95093.09;5026135;28;20029;-75
2022/11/25 08:44:05;;;;;;;5.00;2.80;;;;;;;19.83;26.04;95101.56;5025797;28;20040;-74
2022/11/25 08:46:32;;;;;;;3.88;3.20;;;;;;;19.60;26.21;95098.56;5025933;28;20033;-76
2022/11/25 08:48:58;;;;;;;3.83;3.10;;;;;;;20.04;25.55;95099.47;5025148;28;20482;-76
2022/11/25 08:51:26;;;;;;;4.32;3.20;;;;;;;20.09;26.04;95101.56;5026438;28;20071;-77
2022/11/25 08:53:52;;;;;;;4.15;2.83;;;;;;;19.93;26.04;95085.44;4991730;28;20033;-77
2022/11/25 08:56:18;;;;;;;5.72;3.17;;;;;;;20.32;25.45;95080.16;5011107;28;20030;-76
2022/11/25 08:58:43;;;;;;;4.90;3.22;;;;;;;20.26;25.63;95085.69;5008605;28;20036;-76
2022/11/25 09:01:09;;;;;;;3.47;2.70;;;;;;;20.77;24.89;95088.81;5026034;28;20029;-74
2022/11/25 09:03:40;;;;;;;4.32;2.78;;;;;;;19.68;25.79;95092.59;4977017;28;20025;-76
2022/11/25 09:06:06;;;;;;;4.30;2.80;;;;;;;20.28;24.97;95096.34;4995594;28;20076;-77
2022/11/25 09:08:32;;;;;;;3.88;3.20;;;;;;;19.27;26.29;95090.63;5012063;28;20025;-76
2022/11/25 09:10:58;;;;;;;5.32;3.33;;;;;;;20.06;25.79;95099.75;4978719;28;20039;-76
2022/11/25 09:13:23;;;;;;;4.50;3.20;;;;;;;19.43;26.30;95099.66;5011918;28;20033;-76
2022/11/25 09:15:48;;;;;;;3.72;3.30;;;;;;;19.03;27.14;95078.94;5010972;28;20029;-76
2022/11/25 09:18:15;;;;;;;5.45;3.15;;;;;;;19.32;26.39;95092.69;5011656;28;20030;-76
2022/11/25 09:20:41;;;;;;;5.63;2.80;;;;;;;19.08;26.86;95095.72;5029411;28;20084;-76
2022/11/25 09:23:07;;;;;;;4.28;3.25;;;;;;;19.33;26.21;95094.25;4994868;28;20411;-75
2022/11/25 09:25:32;;;;;;;5.57;3.80;;;;;;;19.55;26.21;95101.28;4995102;28;20410;-76
2022/11/25 09:27:58;;;;;;;4.22;3.30;;;;;;;20.53;24.90;95089.19;5010792;28;20029;-76
2022/11/25 09:30:23;;;;;;;6.93;3.63;;;;;;;20.85;27.56;95075.91;4979072;28;20168;-75
2022/11/25 09:32:49;;;;;;;5.95;3.50;;;;;;;22.00;23.18;95087.13;4994150;28;20568;-76
2022/11/25 09:35:15;;;;;;;6.25;4.15;;;;;;;20.54;24.61;95105.44;4995143;28;20021;-76
2022/11/25 09:37:41;;;;;;;5.07;3.35;;;;;;;20.32;25.31;95094.09;5028799;28;20028;-76
2022/11/25 09:40:07;;;;;;;4.10;3.15;;;;;;;20.74;24.17;95098.94;5028895;28;20021;-76
2022/11/25 09:48:59;;;;;;;4.43;3.03;;;;;;;21.46;23.64;95100.53;5001561;28;20111;-75
2022/11/25 09:51:33;;;;;;;3.47;2.63;;;;;;;21.26;23.69;95098.66;4931918;29;20438;-75
2022/11/25 09:54:24;;;;;;;4.07;2.47;;;;;;;20.08;25.31;95098.00;4947555;29;20113;-76
2022/11/25 09:56:52;;;;;;;4.57;3.03;;;;;;;21.55;23.36;95096.72;4917969;29;20137;-76
2022/11/25 09:59:18;;;;;;;3.72;2.90;;;;;;;22.43;22.64;95080.50;4915819;29;20077;-76
2022/11/25 10:01:49;;;;;;;3.88;2.78;;;;;;;22.80;21.76;95100.53;4935447;29;20118;-76
2022/11/25 10:04:43;;;;;;;3.50;2.15;;;;;;;23.03;21.50;95097.69;4917411;29;20095;-76
2022/11/25 10:07:33;;;;;;;3.60;2.80;;;;;;;23.73;21.02;95095.56;4918331;29;20031;-76
2022/11/25 10:10:00;;;;;;;4.90;2.70;;;;;;;23.98;20.62;95100.00;4916939;29;20556;-76
2022/11/25 10:12:30;;;;;;;4.30;2.45;;;;;;;23.42;20.86;95091.16;4931506;29;20090;-76
2022/11/25 10:15:01;;;;;;;5.30;2.97;;;;;;;23.53;20.63;95088.28;4930738;29;20062;-76
2022/11/25 10:17:45;;;;;;;3.10;2.30;;;;;;;23.16;21.46;95097.13;4915611;29;20444;-76
2022/11/25 10:20:16;;;;;;;3.25;2.60;;;;;;;23.15;21.91;95104.00;4915805;29;20031;-76
2022/11/25 10:22:43;;;;;;;3.15;2.15;;;;;;;23.01;21.40;95080.63;4947403;29;20520;-76
2022/11/25 10:25:28;;;;;;;4.32;2.33;;;;;;;22.82;22.72;95091.59;4914435;29;20039;-76
2022/11/25 10:27:55;;;;;;;3.65;2.42;;;;;;;22.68;24.69;95096.25;4950961;28;20042;-78
2022/11/25 10:30:25;;;;;;;3.30;2.45;;;;;;;21.90;22.56;95088.63;5009745;28;20035;-77
2022/11/25 10:32:53;;;;;;;3.53;2.33;;;;;;;21.58;22.72;95088.09;4992556;28;20025;-77
2022/11/25 10:35:40;;;;;;;4.22;2.10;;;;;;;22.42;22.50;95087.38;4993454;28;20065;-76
2022/11/25 10:38:10;;;;;;;2.50;1.98;;;;;;;22.72;21.38;95087.59;5008486;28;20108;-79
2022/11/25 10:40:35;;;;;;;4.15;1.90;;;;;;;22.41;22.42;95089.41;4992071;28;20017;-78
2022/11/25 10:43:04;;;;;;;3.05;2.05;;;;;;;22.67;22.17;95077.16;5007310;28;20033;-78
2022/11/25 10:45:32;;;;;;;2.88;2.03;;;;;;;22.79;22.13;95075.84;4993133;28;20049;-77
2022/11/25 10:48:16;;;;;;;3.17;2.03;;;;;;;22.49;21.95;95089.66;4993208;28;20054;-77
2022/11/25 10:50:54;;;;;;;3.05;2.42;;;;;;;23.05;22.28;95078.31;4993829;28;20029;-77
2022/11/25 10:53:21;;;;;;;4.93;2.47;;;;;;;23.10;22.84;95088.72;5027131;28;20068;-77
2022/11/25 10:56:04;;;;;;;3.03;1.88;;;;;;;23.30;21.50;95096.06;5009011;28;20056;-78
2022/11/25 10:58:31;;;;;;;2.70;2.03;;;;;;;23.15;22.84;95098.41;4992645;28;20062;-77
2022/11/25 11:01:26;;;;;;;4.40;2.60;;;;;;;22.80;23.46;95100.53;4992612;28;20055;-77
2022/11/25 11:04:03;;;;;;;3.17;2.22;;;;;;;22.48;21.98;95094.50;4945606;29;20043;-76
2022/11/25 11:06:36;;;;;;;5.40;2.55;;;;;;;21.79;22.67;95097.00;4934241;29;20070;-75
2022/11/25 11:09:02;;;;;;;5.13;2.13;;;;;;;22.24;22.84;95113.84;4915035;29;20058;-76
2022/11/25 11:11:27;;;;;;;5.53;2.40;;;;;;;20.93;23.77;95107.66;4914787;29;20383;-75
2022/11/25 11:14:12;;;;;;;3.35;2.45;;;;;;;20.73;24.24;95107.84;4946692;29;20098;-76
2022/11/25 11:16:44;;;;;;;3.65;2.40;;;;;;;20.55;25.18;95115.34;4914263;29;20035;-76
2022/11/25 11:19:23;;;;;;;5.78;2.60;;;;;;;20.23;25.08;95119.41;4915142;29;20094;-77
2022/11/25 11:21:49;;;;;;;4.03;2.70;;;;;;;19.72;26.14;95109.84;4914183;29;20055;-77
2022/11/25 11:24:29;;;;;;;6.50;2.50;;;;;;;19.04;27.08;95119.50;4914025;29;20039;-78
2022/11/25 11:27:21;;;;;;;3.40;2.78;;;;;;;18.14;28.30;95123.78;4929620;29;20521;-76
2022/11/25 11:29:47;;;;;;;4.28;2.80;;;;;;;17.77;28.32;95126.97;4942310;29;20059;-76
2022/11/25 11:32:31;;;;;;;3.58;2.78;;;;;;;17.97;29.07;95112.38;4930046;29;20038;-76
2022/11/25 11:35:05;;;;;;;4.25;2.55;;;;;;;18.47;28.00;95115.19;4929424;29;20035;-77
2022/11/25 11:37:41;;;;;;;3.97;2.78;;;;;;;17.82;29.01;95086.59;4929538;29;20126;-76
2022/11/25 11:40:36;;;;;;;6.40;2.80;;;;;;;17.52;29.51;95113.59;4942928;28;20041;-76
2022/11/25 11:43:04;;;;;;;4.50;2.47;;;;;;;17.06;30.24;95121.59;4991601;28;20029;-76
2022/11/25 11:45:42;;;;;;;4.55;3.05;;;;;;;16.94;30.64;95106.69;5025960;28;20155;-76
2022/11/25 11:48:20;;;;;;;7.65;3.50;;;;;;;16.74;30.37;95101.75;5025425;28;20468;-76
2022/11/25 11:50:57;;;;;;;4.57;3.15;;;;;;;16.66;30.87;95117.19;4993089;28;20112;-76
2022/11/25 11:53:29;;;;;;;4.97;3.13;;;;;;;16.37;31.40;95123.38;5009104;28;20512;-77